Buritizeiro, Brazil
Current Conditions -  °F | °C
As of 9:00 AM on Friday 24 Oct 2014 (Local Time) from SBTE Reporting Station
Few Clouds Few Clouds  
Wind Chill: 86°   Ceiling: Unl
Heat Index: 90°   Visibility: 6mi
Dew Point: 70°   Wind: 6mph
Humidity: 58%   Direction: 90°E
Pressure: 29.88"   Gusts: NA
Location:  3.81°S, 43.36°W
Report Text: SBTE 241200Z 09005KT 9999 FEW025 30/21 Q1012
Loading
Personal Weather Stations






























Interactive Weather Map
Tropical Storm Tracking
New forecast layout! Learn more

10-Day Weather Forecast

Advertisements
Track Severe Weather on mobile